Time;durP1;ratioP1;P1;durP2;ratioP2;P2;SDS_P1;SDS_P2;PMS_P1;PMS_P2;Temp;Humidity;BMP_temperature;BMP_pressure;BME280_temperature;BME280_humidity;BME280_pressure;Samples;Min_cycle;Max_cycle;Signal;HPM_P1;HPM_P2
2021/12/13 00:00:10;;;;;;;15.20;7.28;;;2.00;99.90;;;;;;5068836;28;20041;-56
2021/12/13 00:03:18;;;;;;;13.52;6.68;;;2.10;99.90;;;;;;5066645;28;20040;-57
2021/12/13 00:05:55;;;;;;;9.63;6.28;;;2.10;99.90;;;;;;5065262;28;20057;-57
2021/12/13 00:08:31;;;;;;;10.73;6.25;;;2.10;99.90;;;;;;5058198;28;20068;-57
2021/12/13 00:11:20;;;;;;;12.38;5.80;;;2.10;99.90;;;;;;5070520;28;20041;-57
2021/12/13 00:13:52;;;;;;;11.52;6.40;;;2.10;99.90;;;;;;5070642;28;20076;-57
2021/12/13 00:16:27;;;;;;;14.65;6.97;;;2.20;99.90;;;;;;5070384;28;20033;-57
2021/12/13 00:18:58;;;;;;;14.50;7.05;;;2.10;99.90;;;;;;5065127;28;20086;-56
2021/12/13 00:21:41;;;;;;;11.98;6.55;;;2.20;99.90;;;;;;5074232;28;20447;-57
2021/12/13 00:24:12;;;;;;;15.18;7.40;;;2.20;99.90;;;;;;5069125;28;20044;-58
2021/12/13 00:26:46;;;;;;;10.98;6.85;;;2.20;99.90;;;;;;5073653;28;20090;-56
2021/12/13 00:29:22;;;;;;;10.80;6.68;;;2.30;99.90;;;;;;5054021;28;20075;-57
2021/12/13 00:32:10;;;;;;;11.43;6.45;;;2.30;99.90;;;;;;5054145;28;20102;-56
2021/12/13 00:34:41;;;;;;;10.98;6.50;;;2.30;99.90;;;;;;5054317;28;20485;-57
2021/12/13 00:37:16;;;;;;;13.70;6.75;;;2.20;99.90;;;;;;5053601;28;20049;-59
2021/12/13 00:40:24;;;;;;;13.23;7.05;;;2.30;99.90;;;;;;5054073;28;20053;-57
2021/12/13 00:42:57;;;;;;;12.55;6.28;;;2.20;99.90;;;;;;5033581;28;20103;-59
2021/12/13 00:45:28;;;;;;;14.45;8.05;;;2.20;99.90;;;;;;5053611;28;20267;-59
2021/12/13 00:47:56;;;;;;;15.27;7.75;;;2.20;99.90;;;;;;5053763;28;20044;-60
2021/12/13 00:50:26;;;;;;;16.83;8.73;;;2.10;99.90;;;;;;5053869;28;20049;-59
2021/12/13 00:52:54;;;;;;;15.65;7.93;;;2.00;99.90;;;;;;5035772;28;20554;-59
2021/12/13 00:55:28;;;;;;;12.75;7.03;;;2.00;99.90;;;;;;5053349;28;20061;-59
2021/12/13 00:58:17;;;;;;;13.88;6.95;;;2.00;99.90;;;;;;5053676;28;20045;-57
2021/12/13 01:00:47;;;;;;;;;;;2.00;99.90;;;;;;5054153;28;20048;-58
2021/12/13 01:03:21;;;;;;;14.30;7.03;;;2.10;99.90;;;;;;5053315;28;20054;-59
2021/12/13 01:06:07;;;;;;;11.20;7.32;;;2.10;99.90;;;;;;5053097;28;20045;-58
2021/12/13 01:09:18;;;;;;;12.65;7.18;;;2.10;99.90;;;;;;5053244;28;20512;-59
2021/12/13 01:11:58;;;;;;;13.35;7.28;;;2.10;99.90;;;;;;5053212;28;20071;-59
2021/12/13 01:14:29;;;;;;;15.80;8.82;;;2.20;99.90;;;;;;5053540;28;20091;-59
2021/12/13 01:17:11;;;;;;;16.45;9.48;;;2.10;99.90;;;;;;5052764;28;20045;-58
2021/12/13 01:19:57;;;;;;;13.73;8.15;;;2.00;99.90;;;;;;5053201;28;20055;-59
2021/12/13 01:25:43;;;;;;;11.10;6.50;;;2.00;99.90;;;;;;5053125;28;20092;-59
2021/12/13 01:28:33;;;;;;;13.85;8.38;;;2.00;99.90;;;;;;5053082;28;20052;-57
2021/12/13 01:31:12;;;;;;;13.80;7.85;;;2.00;99.90;;;;;;5052842;28;20049;-58
2021/12/13 01:33:43;;;;;;;13.40;8.27;;;2.00;99.90;;;;;;5052973;28;20051;-59
2021/12/13 01:36:14;;;;;;;19.08;8.70;;;1.90;99.90;;;;;;5052507;28;20495;-59
2021/12/13 01:38:49;;;;;;;13.68;8.27;;;1.90;99.90;;;;;;5052712;28;20052;-57
2021/12/13 01:41:23;;;;;;;16.88;8.30;;;1.90;99.90;;;;;;5052966;28;20048;-56
2021/12/13 01:43:56;;;;;;;14.75;8.70;;;1.90;99.90;;;;;;5052821;28;20052;-59
2021/12/13 01:46:23;;;;;;;19.88;9.25;;;1.80;99.90;;;;;;5052481;28;20497;-58
2021/12/13 01:48:53;;;;;;;14.82;8.50;;;1.80;99.90;;;;;;5052587;28;20052;-59
2021/12/13 01:51:26;;;;;;;16.33;9.25;;;1.90;99.90;;;;;;5052313;28;20063;-58
2021/12/13 01:53:58;;;;;;;14.98;8.85;;;1.90;99.90;;;;;;5052510;28;20037;-59
2021/12/13 01:59:15;;;;;;;;;;;2.00;99.90;;;;;;5052846;28;20086;-58
2021/12/13 02:01:43;;;;;;;11.95;7.80;;;2.00;99.90;;;;;;5034491;28;19927;-58
2021/12/13 02:04:14;;;;;;;14.88;8.13;;;2.10;99.90;;;;;;5052199;28;20055;-59
2021/12/13 02:06:44;;;;;;;15.30;8.93;;;2.10;99.90;;;;;;5052001;28;20053;-59
2021/12/13 02:09:22;;;;;;;15.65;8.43;;;2.00;99.90;;;;;;5052108;28;20052;-59
2021/12/13 02:11:52;;;;;;;15.35;8.85;;;2.00;99.90;;;;;;5052434;28;20048;-59
2021/12/13 02:14:27;;;;;;;15.93;9.23;;;2.00;99.90;;;;;;5052055;28;20622;-59
2021/12/13 02:17:11;;;;;;;16.52;10.07;;;2.00;99.90;;;;;;5051867;28;20485;-59
2021/12/13 02:19:40;;;;;;;17.30;9.95;;;2.00;99.90;;;;;;5043967;28;20689;-59
2021/12/13 02:22:31;;;;;;;22.65;10.15;;;1.90;99.90;;;;;;5072121;28;20044;-58
2021/12/13 02:25:07;;;;;;;22.30;10.10;;;1.90;99.90;;;;;;5039902;28;20063;-58
2021/12/13 02:27:36;;;;;;;17.98;9.38;;;1.90;99.90;;;;;;5071748;28;20558;-58
2021/12/13 02:30:21;;;;;;;17.67;9.55;;;1.90;99.90;;;;;;5071935;28;20040;-57
2021/12/13 02:32:49;;;;;;;18.65;9.70;;;1.80;99.90;;;;;;5072030;28;20045;-58
2021/12/13 02:35:19;;;;;;;17.67;10.18;;;1.90;99.90;;;;;;5071145;28;20036;-58
2021/12/13 02:37:46;;;;;;;16.63;9.98;;;1.90;99.90;;;;;;5071703;28;20553;-58
2021/12/13 02:40:16;;;;;;;15.70;9.52;;;1.90;99.90;;;;;;5071693;28;20041;-57
2021/12/13 02:42:44;;;;;;;16.90;10.15;;;1.90;99.90;;;;;;5053417;28;20468;-58
2021/12/13 02:45:25;;;;;;;21.95;10.00;;;1.90;99.90;;;;;;5071463;28;20048;-59
2021/12/13 02:47:59;;;;;;;17.63;10.85;;;1.90;99.90;;;;;;5071632;28;20118;-58
2021/12/13 02:50:34;;;;;;;18.50;10.02;;;1.90;99.90;;;;;;5071665;28;20048;-58
2021/12/13 02:53:04;;;;;;;17.48;10.85;;;1.90;99.90;;;;;;5071636;28;20048;-58
2021/12/13 02:55:31;;;;;;;17.08;10.60;;;1.90;99.90;;;;;;5071071;28;20040;-58
2021/12/13 02:58:02;;;;;;;19.30;11.27;;;1.90;99.90;;;;;;5071495;28;20045;-58
2021/12/13 03:00:43;;;;;;;17.50;10.50;;;1.90;99.90;;;;;;5071614;28;20044;-58
2021/12/13 03:03:15;;;;;;;20.92;11.27;;;1.90;99.90;;;;;;5071577;28;20055;-59
2021/12/13 03:05:47;;;;;;;18.40;10.60;;;1.90;99.90;;;;;;5071215;28;20052;-58
2021/12/13 03:08:43;;;;;;;17.83;11.07;;;1.90;99.90;;;;;;5072048;28;20040;-95
2021/12/13 03:11:22;;;;;;;17.70;10.30;;;1.90;99.90;;;;;;5069223;28;20076;-63
2021/12/13 03:13:56;;;;;;;19.77;11.32;;;1.90;99.90;;;;;;5071376;28;20135;-60
2021/12/13 03:16:29;;;;;;;17.30;10.85;;;1.90;99.90;;;;;;5071064;28;20078;-63
2021/12/13 03:19:02;;;;;;;17.67;11.23;;;1.90;99.90;;;;;;5070485;28;20457;-63
2021/12/13 03:21:49;;;;;;;22.08;11.85;;;2.00;99.90;;;;;;5071301;28;20044;-62
2021/12/13 03:24:28;;;;;;;18.40;11.70;;;2.00;99.90;;;;;;5071350;28;20123;-60
2021/12/13 03:27:22;;;;;;;23.30;11.68;;;1.90;99.90;;;;;;5070858;28;20049;-63
2021/12/13 03:30:13;;;;;;;18.20;11.23;;;2.00;99.90;;;;;;5071275;28;20089;-63
2021/12/13 03:32:55;;;;;;;19.10;11.45;;;2.00;99.90;;;;;;5071337;28;20051;-63
2021/12/13 03:35:33;;;;;;;19.30;11.25;;;2.00;99.90;;;;;;5070523;28;20048;-63
2021/12/13 03:38:07;;;;;;;19.17;11.00;;;2.00;99.90;;;;;;5071184;28;20492;-60
2021/12/13 03:40:34;;;;;;;19.42;10.75;;;2.00;99.90;;;;;;5071106;28;20045;-60
2021/12/13 03:43:17;;;;;;;23.95;11.73;;;2.00;99.90;;;;;;5071205;28;20043;-62
2021/12/13 03:45:49;;;;;;;20.02;11.23;;;2.00;99.90;;;;;;5070552;28;20044;-60
2021/12/13 03:48:19;;;;;;;18.85;10.98;;;2.00;99.90;;;;;;5070965;28;20505;-62
2021/12/13 03:50:50;;;;;;;18.58;10.80;;;2.00;99.90;;;;;;5071119;28;20040;-62
2021/12/13 03:53:25;;;;;;;20.38;11.10;;;2.10;99.90;;;;;;5071422;28;20040;-62
2021/12/13 03:56:01;;;;;;;18.15;11.73;;;2.00;99.90;;;;;;5074356;28;20086;-62
2021/12/13 03:58:34;;;;;;;18.23;10.90;;;2.10;99.90;;;;;;5074533;28;20056;-62
2021/12/13 04:01:24;;;;;;;18.63;11.13;;;2.10;99.90;;;;;;5074773;28;20041;-62
2021/12/13 04:03:57;;;;;;;18.75;10.55;;;2.10;99.90;;;;;;5074648;28;20048;-62
2021/12/13 04:06:25;;;;;;;22.17;12.00;;;2.10;99.90;;;;;;5074330;28;20523;-62
2021/12/13 04:08:53;;;;;;;;;;;2.10;99.90;;;;;;5074668;28;20052;-62
2021/12/13 04:11:23;;;;;;;28.02;13.43;;;2.10;99.90;;;;;;5074569;28;19921;-62
2021/12/13 04:14:08;;;;;;;35.88;16.27;;;2.00;99.90;;;;;;5074506;28;20055;-62
2021/12/13 04:20:05;;;;;;;20.60;10.85;;;1.90;99.90;;;;;;5074135;28;20040;-62
2021/12/13 04:22:36;;;;;;;19.98;12.25;;;1.90;99.90;;;;;;5074520;28;20036;-62
2021/12/13 04:25:15;;;;;;;20.83;11.68;;;1.90;99.90;;;;;;5074320;28;20071;-62
2021/12/13 04:27:48;;;;;;;23.90;12.55;;;1.90;99.90;;;;;;5074147;28;20093;-62
2021/12/13 04:30:30;;;;;;;25.00;13.10;;;1.90;99.90;;;;;;5074343;28;20139;-62
2021/12/13 04:33:05;;;;;;;22.58;12.98;;;1.90;99.90;;;;;;5073996;28;20048;-62
2021/12/13 04:35:35;;;;;;;22.90;13.05;;;2.00;99.90;;;;;;5073793;28;20048;-62
2021/12/13 04:38:05;;;;;;;26.90;14.48;;;2.00;99.90;;;;;;5073985;28;20504;-62
2021/12/13 04:40:36;;;;;;;24.63;14.57;;;2.00;99.90;;;;;;5074304;28;20056;-62
2021/12/13 04:43:13;;;;;;;24.33;13.32;;;1.90;99.90;;;;;;5073973;28;20043;-62
2021/12/13 04:45:48;;;;;;;19.37;10.37;;;1.90;99.90;;;;;;5073502;28;20044;-62
2021/12/13 04:48:21;;;;;;;31.60;15.15;;;2.00;99.90;;;;;;5073728;28;20037;-62
2021/12/13 04:51:08;;;;;;;21.98;13.75;;;2.00;99.90;;;;;;5073900;28;20057;-62
2021/12/13 04:53:41;;;;;;;23.33;14.23;;;2.00;99.90;;;;;;5073664;28;20040;-62
2021/12/13 04:56:19;;;;;;;26.13;14.77;;;2.10;99.90;;;;;;5073328;28;20037;-62
2021/12/13 04:58:47;;;;;;;;;;;2.10;99.90;;;;;;5073817;28;20047;-62
2021/12/13 05:01:16;;;;;;;30.52;16.05;;;2.00;99.90;;;;;;5073679;28;20008;-62
2021/12/13 05:03:56;;;;;;;33.72;16.42;;;2.10;99.90;;;;;;5073532;28;20546;-62
2021/12/13 05:06:29;;;;;;;33.13;16.92;;;2.00;99.90;;;;;;5072650;28;20052;-62
2021/12/13 05:08:58;;;;;;;30.75;16.13;;;2.00;99.90;;;;;;5073106;28;20056;-62
2021/12/13 05:11:31;;;;;;;25.75;15.30;;;2.00;99.90;;;;;;5073397;28;20048;-62
2021/12/13 05:14:00;;;;;;;28.67;15.27;;;2.00;99.90;;;;;;5073393;28;20497;-62
2021/12/13 05:16:41;;;;;;;26.25;15.15;;;2.00;99.90;;;;;;5072863;28;20044;-62
2021/12/13 05:19:10;;;;;;;31.80;15.85;;;1.80;99.90;;;;;;5072983;28;20094;-62
2021/12/13 05:21:44;;;;;;;29.05;15.15;;;2.00;99.90;;;;;;5073341;28;20452;-62
2021/12/13 05:24:22;;;;;;;27.77;14.77;;;2.00;99.90;;;;;;5073259;28;20045;-62
2021/12/13 05:26:52;;;;;;;;;;;2.00;99.90;;;;;;5072972;28;20044;-62
2021/12/13 05:29:30;;;;;;;29.88;14.90;;;2.00;99.90;;;;;;5073122;28;19931;-62
2021/12/13 05:32:12;;;;;;;29.55;15.95;;;2.10;99.90;;;;;;5088576;28;20404;-62
2021/12/13 05:34:54;;;;;;;28.25;15.27;;;2.10;99.90;;;;;;5093256;28;20052;-62
2021/12/13 05:37:21;;;;;;;33.28;16.15;;;2.10;99.90;;;;;;5092954;28;20483;-62
2021/12/13 05:40:00;;;;;;;29.67;16.90;;;2.10;99.90;;;;;;5092870;28;20043;-62
2021/12/13 05:42:38;;;;;;;26.92;15.00;;;2.00;99.90;;;;;;5092377;28;20511;-62
2021/12/13 05:45:09;;;;;;;34.20;18.92;;;2.00;99.90;;;;;;5092863;28;20101;-62
2021/12/13 05:47:36;;;;;;;35.92;18.27;;;2.00;99.90;;;;;;5089247;28;20127;-62
2021/12/13 05:50:07;;;;;;;31.00;18.00;;;2.00;99.90;;;;;;5092375;28;20127;-62
2021/12/13 05:52:39;;;;;;;37.13;17.52;;;2.00;99.90;;;;;;5074041;28;20045;-62
2021/12/13 05:55:12;;;;;;;33.83;17.65;;;2.00;99.90;;;;;;5071414;28;20037;-62
2021/12/13 05:57:48;;;;;;;35.13;18.02;;;2.10;99.90;;;;;;5088232;28;20036;-62
2021/12/13 06:00:30;;;;;;;38.25;19.17;;;2.10;99.90;;;;;;5092200;28;20496;-62
2021/12/13 06:03:17;;;;;;;41.47;18.65;;;2.00;99.90;;;;;;5072164;28;20041;-61
2021/12/13 06:05:48;;;;;;;31.70;17.25;;;2.00;99.90;;;;;;5059285;28;20127;-62
2021/12/13 06:08:22;;;;;;;31.05;16.20;;;2.00;99.90;;;;;;5091905;28;20097;-62
2021/12/13 06:10:59;;;;;;;32.72;16.80;;;2.00;99.90;;;;;;5092049;28;20043;-62
2021/12/13 06:13:44;;;;;;;34.75;17.52;;;2.00;99.90;;;;;;5092501;28;20169;-62
2021/12/13 06:16:18;;;;;;;38.38;18.55;;;2.00;99.90;;;;;;5092135;28;20043;-61
2021/12/13 06:19:07;;;;;;;44.92;18.45;;;2.00;99.90;;;;;;5080505;28;20060;-62
2021/12/13 06:21:40;;;;;;;34.72;17.58;;;2.00;99.90;;;;;;5072097;28;20044;-62
2021/12/13 06:24:10;;;;;;;39.40;17.08;;;2.00;99.90;;;;;;5071761;28;20124;-62
2021/12/13 06:26:38;;;;;;;54.05;19.90;;;2.00;99.90;;;;;;5071592;28;20048;-62
2021/12/13 06:29:08;;;;;;;130.93;22.75;;;2.00;99.90;;;;;;5083797;28;20397;-62
2021/12/13 06:31:41;;;;;;;33.40;17.83;;;2.00;99.90;;;;;;5086927;28;20385;-62
2021/12/13 06:34:14;;;;;;;32.25;17.02;;;1.90;99.90;;;;;;5092225;28;20048;-61
2021/12/13 06:36:47;;;;;;;33.85;18.67;;;1.90;99.90;;;;;;5072638;28;20060;-62
2021/12/13 06:39:21;;;;;;;33.45;18.58;;;1.90;99.90;;;;;;5064195;28;20024;-62
2021/12/13 06:41:58;;;;;;;31.77;17.67;;;1.90;99.90;;;;;;5057127;28;20045;-62
2021/12/13 06:44:29;;;;;;;37.85;18.88;;;1.90;99.90;;;;;;5051703;28;20120;-62
2021/12/13 06:47:11;;;;;;;33.67;18.63;;;1.90;99.90;;;;;;5051254;28;20133;-62
2021/12/13 06:49:40;;;;;;;33.22;18.02;;;1.90;99.90;;;;;;5056639;28;20106;-62
2021/12/13 06:52:13;;;;;;;30.67;17.48;;;2.00;99.90;;;;;;5061040;28;20037;-62
2021/12/13 06:54:40;;;;;;;35.47;18.60;;;2.10;99.90;;;;;;5054204;28;20131;-62
2021/12/13 06:57:16;;;;;;;31.33;16.27;;;2.10;99.90;;;;;;5051161;28;20045;-62
2021/12/13 06:59:51;;;;;;;31.80;17.10;;;2.20;99.90;;;;;;5051460;28;20045;-62
2021/12/13 07:02:27;;;;;;;38.70;18.60;;;2.20;99.90;;;;;;5051652;28;20120;-62
2021/12/13 07:05:08;;;;;;;31.65;17.27;;;2.20;99.90;;;;;;5051294;28;20440;-62
2021/12/13 07:07:55;;;;;;;32.75;16.30;;;2.10;99.90;;;;;;5051385;28;20057;-62
2021/12/13 07:10:30;;;;;;;32.10;17.48;;;2.10;99.90;;;;;;5051241;28;20040;-62
2021/12/13 07:13:04;;;;;;;35.85;17.13;;;2.00;99.90;;;;;;5051257;28;20060;-61
2021/12/13 07:15:46;;;;;;;35.35;17.67;;;2.00;99.90;;;;;;5069043;28;20045;-61
2021/12/13 07:18:15;;;;;;;36.83;17.30;;;2.00;99.90;;;;;;5071248;28;20087;-62
2021/12/13 07:21:03;;;;;;;49.28;24.35;;;2.10;99.90;;;;;;5071099;28;20090;-62
2021/12/13 07:23:52;;;;;;;38.22;19.50;;;2.20;99.90;;;;;;5070365;28;20052;-62
2021/12/13 07:26:39;;;;;;;40.50;21.25;;;2.20;99.90;;;;;;5071044;28;20120;-61
2021/12/13 07:29:26;;;;;;;37.03;18.92;;;2.30;99.90;;;;;;5073148;28;20049;-62
2021/12/13 07:32:15;;;;;;;30.85;17.85;;;2.30;99.90;;;;;;5075430;28;20076;-62
2021/12/13 07:35:05;;;;;;;30.67;17.00;;;2.30;99.90;;;;;;5075321;28;20045;-62
2021/12/13 07:37:59;;;;;;;35.03;17.27;;;2.40;99.90;;;;;;5062451;28;20060;-62
2021/12/13 07:40:54;;;;;;;31.95;16.40;;;2.30;99.90;;;;;;5065196;28;20106;-61
2021/12/13 07:43:42;;;;;;;29.90;17.70;;;2.30;99.90;;;;;;5075060;28;20562;-62
2021/12/13 07:46:18;;;;;;;34.33;19.60;;;2.30;99.90;;;;;;5074825;28;20052;-62
2021/12/13 07:48:45;;;;;;;32.40;19.02;;;2.40;99.90;;;;;;5075116;28;20072;-62
2021/12/13 07:51:15;;;;;;;45.53;21.60;;;2.40;99.90;;;;;;5074797;28;20039;-62
2021/12/13 07:53:57;;;;;;;43.38;21.13;;;2.50;99.90;;;;;;5074810;28;20094;-62
2021/12/13 07:56:25;;;;;;;43.28;19.98;;;2.40;99.90;;;;;;5074405;28;20041;-62
2021/12/13 07:59:00;;;;;;;35.92;18.45;;;2.40;99.90;;;;;;5074721;28;20040;-62
2021/12/13 08:01:30;;;;;;;39.15;19.67;;;2.40;99.90;;;;;;5074846;28;20037;-62
2021/12/13 08:04:10;;;;;;;34.78;17.70;;;2.40;99.90;;;;;;5074797;28;20036;-61
2021/12/13 08:06:41;;;;;;;46.08;17.67;;;2.40;99.90;;;;;;5058296;28;20052;-62
2021/12/13 08:09:13;;;;;;;33.53;16.88;;;2.40;99.90;;;;;;5074477;28;20044;-62
2021/12/13 08:11:53;;;;;;;43.80;19.67;;;2.50;99.90;;;;;;5074615;28;20049;-62
2021/12/13 08:14:55;;;;;;;61.28;22.27;;;2.50;99.90;;;;;;5074377;28;20098;-63
2021/12/13 08:17:31;;;;;;;39.45;17.95;;;2.50;99.90;;;;;;5021387;28;20484;-62
2021/12/13 08:20:01;;;;;;;40.97;19.38;;;2.50;99.90;;;;;;5074690;28;20477;-62
2021/12/13 08:22:30;;;;;;;38.05;20.73;;;2.60;99.90;;;;;;5074447;28;20044;-62
2021/12/13 08:25:05;;;;;;;31.83;18.25;;;2.70;99.90;;;;;;5074070;28;20106;-62
2021/12/13 08:27:41;;;;;;;38.63;19.10;;;2.70;99.90;;;;;;5074070;28;20033;-62
2021/12/13 08:30:26;;;;;;;33.10;18.13;;;2.80;99.90;;;;;;5074515;28;20072;-62
2021/12/13 08:33:07;;;;;;;41.00;19.15;;;2.80;99.90;;;;;;5074102;28;20550;-62
2021/12/13 08:36:02;;;;;;;30.55;17.27;;;2.80;99.90;;;;;;5073606;28;20488;-62
2021/12/13 08:38:41;;;;;;;39.90;17.60;;;2.80;99.90;;;;;;5073977;28;20485;-62
2021/12/13 08:41:22;;;;;;;31.17;15.85;;;2.80;99.90;;;;;;5072961;28;20090;-62
2021/12/13 08:44:18;;;;;;;29.40;15.85;;;2.80;99.90;;;;;;5073702;28;20389;-62
2021/12/13 08:46:55;;;;;;;26.42;15.80;;;2.80;99.90;;;;;;5071703;28;20064;-62
2021/12/13 08:49:38;;;;;;;27.05;15.10;;;2.90;99.90;;;;;;5073886;28;20076;-62
2021/12/13 08:52:11;;;;;;;27.60;17.55;;;3.00;99.90;;;;;;5073633;28;20413;-62
2021/12/13 08:55:00;;;;;;;29.38;17.52;;;3.00;99.90;;;;;;5073828;28;20143;-62
2021/12/13 08:57:51;;;;;;;35.90;17.38;;;3.00;99.90;;;;;;5073458;28;20041;-61
2021/12/13 09:00:21;;;;;;;30.48;17.08;;;3.10;99.90;;;;;;5073565;28;20469;-62
2021/12/13 09:03:10;;;;;;;26.10;16.83;;;3.20;99.90;;;;;;5073631;28;20050;-62
2021/12/13 09:05:52;;;;;;;32.65;18.67;;;3.30;99.90;;;;;;5073195;28;20048;-62
2021/12/13 09:08:30;;;;;;;27.35;15.75;;;3.40;99.90;;;;;;5073157;28;20040;-61
2021/12/13 09:11:57;;;;;;;24.40;13.83;;;3.40;99.90;;;;;;5088385;22;20481;-56
2021/12/13 09:14:50;;;;;;;25.95;14.73;;;3.50;99.90;;;;;;5072932;28;20047;-56
2021/12/13 09:17:26;;;;;;;33.40;16.65;;;3.40;99.90;;;;;;5072653;28;20040;-58
2021/12/13 09:19:53;;;;;;;33.75;18.20;;;3.40;99.90;;;;;;5072783;28;20128;-57
2021/12/13 09:22:32;;;;;;;27.88;17.25;;;3.40;99.90;;;;;;5069853;28;20482;-57
2021/12/13 09:25:05;;;;;;;32.28;18.05;;;3.50;99.90;;;;;;5071950;28;20495;-57
2021/12/13 09:27:41;;;;;;;31.73;17.90;;;3.60;99.90;;;;;;5072843;28;20040;-57
2021/12/13 09:30:11;;;;;;;25.63;15.95;;;3.60;99.90;;;;;;5072672;28;20128;-55
2021/12/13 09:32:44;;;;;;;29.35;17.48;;;3.60;99.90;;;;;;5063956;28;20587;-57
2021/12/13 09:35:22;;;;;;;35.42;17.02;;;3.70;99.90;;;;;;5062950;28;20143;-56
2021/12/13 09:37:55;;;;;;;32.03;17.30;;;3.60;99.90;;;;;;5061196;28;20041;-56
2021/12/13 09:40:37;;;;;;;30.88;16.90;;;3.60;99.90;;;;;;5061990;28;20040;-56
2021/12/13 09:43:06;;;;;;;32.03;17.02;;;3.60;99.90;;;;;;5063100;28;20477;-58
2021/12/13 09:45:39;;;;;;;34.47;17.75;;;3.70;99.90;;;;;;5060769;28;20094;-57
2021/12/13 09:48:24;;;;;;;32.45;17.42;;;3.80;99.90;;;;;;5061373;28;20440;-57
2021/12/13 09:50:56;;;;;;;34.60;16.80;;;3.80;99.90;;;;;;5063143;28;20067;-56
2021/12/13 09:53:36;;;;;;;36.13;18.00;;;3.80;99.90;;;;;;5062749;28;20049;-57
2021/12/13 09:56:11;;;;;;;30.38;17.40;;;3.80;99.90;;;;;;5062092;28;20040;-56
2021/12/13 09:58:51;;;;;;;40.40;18.90;;;3.80;99.90;;;;;;5061683;28;20481;-58
2021/12/13 10:01:28;;;;;;;33.40;18.38;;;3.80;99.90;;;;;;5061684;28;20042;-57
2021/12/13 10:04:08;;;;;;;32.65;19.15;;;3.80;99.90;;;;;;5061549;28;20098;-57
2021/12/13 10:07:04;;;;;;;32.97;17.77;;;3.80;99.90;;;;;;5060871;28;20098;-57
2021/12/13 10:09:35;;;;;;;36.05;19.52;;;3.80;99.90;;;;;;5059198;28;20063;-57
2021/12/13 10:12:16;;;;;;;31.00;18.27;;;3.90;99.90;;;;;;5044571;28;20048;-56
2021/12/13 10:14:50;;;;;;;33.15;17.85;;;3.90;99.90;;;;;;5062342;28;20041;-57
2021/12/13 10:17:29;;;;;;;33.10;18.35;;;3.90;99.90;;;;;;5060779;28;20366;-57
2021/12/13 10:20:00;;;;;;;36.95;18.20;;;4.00;99.90;;;;;;5061039;28;20052;-58
2021/12/13 10:22:31;;;;;;;32.95;18.45;;;4.10;99.90;;;;;;5060623;28;20044;-56
2021/12/13 10:25:26;;;;;;;41.70;20.05;;;4.20;99.90;;;;;;5057857;28;20037;-57
2021/12/13 10:27:54;;;;;;;31.73;17.17;;;4.20;99.90;;;;;;5051712;28;20052;-58
2021/12/13 10:30:28;;;;;;;34.30;17.52;;;4.30;99.90;;;;;;5051997;28;20045;-58
2021/12/13 10:32:56;;;;;;;29.05;17.45;;;4.40;99.90;;;;;;5059562;28;20090;-57
2021/12/13 10:35:29;;;;;;;30.38;17.58;;;4.40;99.90;;;;;;5061052;28;20049;-56
2021/12/13 10:38:04;;;;;;;29.77;16.95;;;4.50;99.90;;;;;;5060132;28;20037;-57
2021/12/13 10:40:40;;;;;;;34.55;18.10;;;4.50;99.90;;;;;;5060231;28;20044;-58
2021/12/13 10:43:16;;;;;;;30.70;18.77;;;4.60;99.90;;;;;;5060518;28;20140;-57
2021/12/13 10:45:53;;;;;;;33.05;17.83;;;4.60;99.90;;;;;;5060652;28;20409;-58
2021/12/13 10:48:25;;;;;;;36.08;17.10;;;4.80;99.90;;;;;;5063205;28;20049;-57
2021/12/13 10:51:05;;;;;;;31.88;17.00;;;4.80;99.90;;;;;;5060858;28;20053;-58
2021/12/13 10:53:34;;;;;;;27.08;15.82;;;4.90;99.90;;;;;;5061496;28;20139;-58
2021/12/13 10:56:14;;;;;;;29.98;16.13;;;4.90;99.90;;;;;;5059617;28;20048;-58
2021/12/13 10:58:55;;;;;;;28.02;16.90;;;4.90;99.90;;;;;;5060031;28;20033;-56
2021/12/13 11:01:30;;;;;;;25.92;14.23;;;5.00;99.90;;;;;;5059752;28;20045;-57
2021/12/13 11:04:00;;;;;;;23.38;13.75;;;4.90;99.90;;;;;;5059659;28;20040;-58
2021/12/13 11:06:28;;;;;;;25.27;13.60;;;4.90;99.90;;;;;;5060251;28;20048;-57
2021/12/13 11:08:55;;;;;;;30.85;15.52;;;4.80;99.90;;;;;;5060480;28;20055;-56
2021/12/13 11:11:28;;;;;;;26.52;16.10;;;4.90;99.90;;;;;;5062234;28;20405;-57
2021/12/13 11:13:59;;;;;;;26.70;14.60;;;4.80;99.90;;;;;;5060638;28;20161;-57
2021/12/13 11:16:55;;;;;;;25.60;14.93;;;4.80;99.90;;;;;;5061781;28;20045;-57
2021/12/13 11:19:27;;;;;;;35.20;16.85;;;4.90;99.90;;;;;;5060524;28;20063;-57
2021/12/13 11:22:01;;;;;;;30.70;16.75;;;5.00;99.90;;;;;;5061275;28;20063;-58
2021/12/13 11:24:33;;;;;;;21.90;14.98;;;5.10;99.90;;;;;;5060127;28;20077;-58
2021/12/13 11:27:06;;;;;;;28.40;15.85;;;5.20;99.90;;;;;;5059774;28;20424;-57
2021/12/13 11:29:33;;;;;;;25.20;14.88;;;5.40;99.90;;;;;;5060637;28;20127;-58
2021/12/13 11:32:34;;;;;;;26.65;14.63;;;5.50;99.90;;;;;;5060101;28;20543;-58
2021/12/13 11:35:07;;;;;;;26.33;14.65;;;5.60;99.90;;;;;;5061917;28;20049;-57
2021/12/13 11:37:55;;;;;;;25.73;14.70;;;5.70;99.90;;;;;;5060415;28;20382;-58
2021/12/13 11:40:45;;;;;;;23.25;13.70;;;5.70;99.90;;;;;;5061780;28;20726;-57
2021/12/13 11:43:40;;;;;;;22.73;13.70;;;5.70;99.90;;;;;;5060439;28;20781;-57
2021/12/13 11:46:37;;;;;;;28.73;14.80;;;5.60;99.90;;;;;;5059323;28;20112;-58
2021/12/13 11:49:40;;;;;;;25.58;13.23;;;5.50;99.90;;;;;;5061281;28;20102;-56
2021/12/13 11:52:42;;;;;;;24.10;13.70;;;5.50;99.90;;;;;;5059715;28;20041;-57
2021/12/13 11:55:08;;;;;;;24.70;13.10;;;5.50;99.90;;;;;;5059591;28;20123;-56
2021/12/13 11:58:19;;;;;;;22.98;13.10;;;5.40;99.90;;;;;;5060178;28;20115;-57
2021/12/13 12:01:23;;;;;;;27.13;14.48;;;5.30;99.90;;;;;;5061459;28;20044;-58
2021/12/13 12:04:28;;;;;;;22.27;12.60;;;5.30;99.90;;;;;;5060508;28;20041;-57
2021/12/13 12:07:13;;;;;;;23.10;11.90;;;5.20;99.90;;;;;;5060170;28;20044;-57
2021/12/13 12:09:40;;;;;;;22.85;14.75;;;5.20;99.90;;;;;;5061134;28;20044;-58
2021/12/13 12:12:43;;;;;;;25.35;15.68;;;5.20;99.90;;;;;;5059106;28;20461;-57
2021/12/13 12:15:11;;;;;;;26.55;15.10;;;5.20;99.90;;;;;;5061542;28;20409;-58
2021/12/13 12:17:38;;;;;;;18.90;11.90;;;5.30;99.90;;;;;;5063535;28;20036;-57
2021/12/13 12:20:17;;;;;;;22.23;12.45;;;5.30;99.90;;;;;;5064832;28;20389;-57
2021/12/13 12:22:54;;;;;;;20.50;12.23;;;5.20;99.90;;;;;;5064900;28;20147;-57
2021/12/13 12:25:24;;;;;;;20.92;12.80;;;5.10;99.90;;;;;;5064536;28;20091;-57
2021/12/13 12:27:56;;;;;;;20.80;12.23;;;5.10;99.90;;;;;;5063471;28;20051;-58
2021/12/13 12:30:27;;;;;;;20.83;12.85;;;5.10;99.90;;;;;;5062762;28;20098;-57
2021/12/13 12:32:58;;;;;;;18.83;12.50;;;5.20;99.90;;;;;;5063889;28;20093;-58
2021/12/13 12:35:32;;;;;;;20.42;12.68;;;5.20;99.90;;;;;;5064315;28;20102;-58
2021/12/13 12:38:20;;;;;;;24.80;13.18;;;5.20;99.90;;;;;;5064343;28;20143;-57
2021/12/13 12:41:05;;;;;;;25.23;14.43;;;4.80;99.90;;;;;;5062747;28;20044;-57
2021/12/13 12:43:41;;;;;;;27.95;14.98;;;4.80;99.90;;;;;;5063162;28;20640;-57
2021/12/13 12:46:13;;;;;;;28.13;15.25;;;5.00;99.90;;;;;;5062196;28;20056;-57
2021/12/13 12:48:46;;;;;;;24.33;14.68;;;5.10;99.90;;;;;;5062468;28;20584;-58
2021/12/13 12:51:23;;;;;;;27.75;14.60;;;5.10;99.90;;;;;;5063296;28;20057;-58
2021/12/13 12:54:12;;;;;;;27.80;15.95;;;5.10;99.90;;;;;;5062600;28;20116;-58
2021/12/13 12:56:55;;;;;;;29.67;15.38;;;5.10;99.90;;;;;;5063780;28;20041;-57
2021/12/13 12:59:43;;;;;;;29.13;16.35;;;5.20;99.90;;;;;;5064250;28;20044;-57
2021/12/13 13:02:14;;;;;;;30.75;15.70;;;5.10;99.90;;;;;;5062278;28;20029;-58
2021/12/13 13:04:46;;;;;;;26.90;15.48;;;5.00;99.90;;;;;;5045106;28;20056;-57
2021/12/13 13:07:25;;;;;;;26.35;16.70;;;5.00;99.90;;;;;;5062572;28;20037;-58
2021/12/13 13:10:00;;;;;;;30.02;16.17;;;4.90;99.90;;;;;;5046330;28;20488;-57
2021/12/13 13:12:30;;;;;;;29.90;15.90;;;4.80;99.90;;;;;;5063791;28;20048;-57
2021/12/13 13:15:09;;;;;;;25.60;16.00;;;4.80;99.90;;;;;;5063272;28;20064;-57
2021/12/13 13:17:45;;;;;;;36.67;17.95;;;4.80;99.90;;;;;;5062965;28;20033;-57
2021/12/13 13:20:25;;;;;;;25.65;15.52;;;4.80;99.90;;;;;;5060712;28;20117;-57
2021/12/13 13:22:54;;;;;;;29.70;16.90;;;4.80;99.90;;;;;;5063499;28;20037;-57
2021/12/13 13:25:43;;;;;;;29.63;17.63;;;4.80;99.90;;;;;;5062697;28;20067;-58
2021/12/13 13:28:29;;;;;;;31.45;18.20;;;4.80;99.90;;;;;;5063024;28;20041;-57
2021/12/13 13:30:56;;;;;;;31.77;17.65;;;4.80;99.90;;;;;;5063494;28;20488;-58
2021/12/13 13:33:33;;;;;;;30.50;16.55;;;4.70;99.90;;;;;;5062180;28;20053;-56
2021/12/13 13:36:01;;;;;;;31.85;16.55;;;4.70;99.90;;;;;;5061365;28;20123;-58
2021/12/13 13:38:28;;;;;;;35.03;17.08;;;4.70;99.90;;;;;;5062543;28;20044;-58
2021/12/13 13:40:55;;;;;;;26.50;16.77;;;4.70;99.90;;;;;;5063517;28;20047;-58